Terminal Aerodrome Forecast
Issued by NWS

Home | Current Version | Previous Version | Text Only | Print | Product List | Glossary On
Versions: 1 2 3 4 5 6 7 8 9 10 11 12 13 14 15 16 17 18 19 20 21 22
244
FTUS42 KJAX 061227 AAA
TAFVQQ
TAF AMD
KVQQ 061227Z 0612/0712 19009KT 1SM +TSRA BR BKN008 BKN030CB OVC060
      WS015/23040KT
      TEMPO 0612/0614 1/2SM +TSRA OVC008CB
     FM061400 21014G21KT 5SM -SHRA VCTS SCT008 BKN030CB OVC070
      TEMPO 0615/0618 2SM +TSRA BKN015CB OVC060
     FM061800 23016G26KT P6SM SCT035
     FM062300 24007KT P6SM SKC=

USA.gov is the U.S. government's official web portal to all federal, state and local government web resources and services.